Terminal Aerodrome Forecast
Issued by NWS

Home | Current Version | Previous Version | Graphics & Text | Print | Product List | Glossary On
Versions: 1 2 3 4 5 6 7 8 9 10 11 12 13 14 15 16 17 18
000
FTUS43 KOAX 272100 AAB
TAFCDR
TAF AMD
KCDR 272117Z 2721/2818 VRB05KT 6SM -TSRA BR SCT025 BKN040CB
      TEMPO 2721/2724 VRB10G20KT 1SM +TSRA BKN015CB
     FM280300 30005KT P6SM VCSH BKN040 OVC100=

USA.gov is the U.S. government's official web portal to all federal, state and local government web resources and services.